^^
Station Historical Data
Daily Summary for April 6, 2017 Units:  English    Metric   Both
« Previous Day
Next Day »
Daily Weekly Monthly Yearly Custom
  High: Low: Average:
Temperature: 50.6 °F 41.6 °F 45.3 °F
Dew Point: 46.7 °F 39.8 °F 42.3 °F
Humidity: 95 % 73 % 90 %
Wind Speed: 12.9 mph 0.0 mph 3.9 mph
Wind Gust: 21.9 mph - -
Wind:- - SE
Pressure: 29.90 in 29.15 in -
Precipitation: 1.70 in    
Historical Graphs
 
 
Tabular Data for April 6, 2017
Time Temperature Dew Point Pressure Wind Wind Speed Wind Gust Humidity Rainfall Rate (Hourly) solar Conditions
00:02 50.6 °F 42.3 °F 29.90 in SE 2.3 mph 7.0 mph 73 % 0.00 in 0.0 W/m2 CLR
00:07 50.4 °F 42.1 °F 29.90 in ESE 7.8 mph 10.4 mph 73 % 0.00 in 0.0 W/m2 CLR
00:12 50.2 °F 41.9 °F 29.89 in SE 4.6 mph 10.4 mph 73 % 0.00 in 0.0 W/m2 CLR
00:17 50.0 °F 41.7 °F 29.89 in ESE 3.3 mph 8.1 mph 73 % 0.00 in 0.0 W/m2 CLR
00:22 49.9 °F 41.9 °F 29.90 in East 1.8 mph   74 % 0.00 in 0.0 W/m2 CLR
00:27 49.8 °F 41.8 °F 29.89 in East 6.0 mph 6.0 mph 74 % 0.00 in 0.0 W/m2 CLR
00:32 49.7 °F 41.7 °F 29.89 in East 0.9 mph 3.5 mph 74 % 0.00 in 0.0 W/m2 CLR
00:37 49.7 °F 41.7 °F 29.89 in East 1.7 mph 2.3 mph 74 % 0.00 in 0.0 W/m2 CLR
00:42 49.6 °F 42.0 °F 29.89 in East 0.6 mph 4.6 mph 75 % 0.00 in 0.0 W/m2 CLR
00:47 49.5 °F 41.9 °F 29.89 in ENE 5.3 mph 9.2 mph 75 % 0.00 in 0.0 W/m2 CLR
00:52 49.4 °F 41.8 °F 29.88 in East 4.5 mph 10.4 mph 75 % 0.00 in 0.0 W/m2 CLR
00:53 49.4 °F 41.8 °F 29.88 in ESE 5.7 mph 8.1 mph 75 % 0.00 in 0.0 W/m2 CLR
00:58 49.3 °F 41.7 °F 29.89 in ESE 0.3 mph 3.5 mph 75 % 0.00 in 0.0 W/m2 CLR
01:03 49.2 °F 41.6 °F 29.88 in ENE 6.1 mph 10.4 mph 75 % 0.00 in 0.0 W/m2 CLR
01:08 49.0 °F 41.8 °F 29.89 in ESE 1.0 mph 3.5 mph 76 % 0.00 in 0.0 W/m2 CLR
01:13 49.0 °F 41.8 °F 29.89 in ESE 3.4 mph 9.2 mph 76 % 0.00 in 0.0 W/m2 CLR
01:18 49.0 °F 41.8 °F 29.89 in ESE 3.4 mph 7.0 mph 76 % 0.00 in 0.0 W/m2 CLR
01:23 48.8 °F 41.6 °F 29.89 in ENE 5.1 mph 10.4 mph 76 % 0.00 in 0.0 W/m2 CLR
01:28 48.6 °F 41.7 °F 29.89 in SE 3.5 mph 6.9 mph 77 % 0.00 in 0.0 W/m2 CLR
01:33 48.6 °F 41.7 °F 29.88 in East 4.4 mph 8.1 mph 77 % 0.00 in 0.0 W/m2 CLR
01:38 48.5 °F 41.6 °F 29.88 in ENE 4.8 mph 8.1 mph 77 % 0.00 in 0.0 W/m2 CLR
01:43 48.4 °F 41.5 °F 29.88 in East 2.4 mph 6.9 mph 77 % 0.00 in 0.0 W/m2 CLR
01:48 48.3 °F 41.4 °F 29.88 in SE 2.9 mph 6.9 mph 77 % 0.00 in 0.0 W/m2 CLR
01:53 48.3 °F 41.4 °F 29.87 in ESE 2.3 mph 5.8 mph 77 % 0.00 in 0.0 W/m2 CLR
01:58 48.2 °F 41.3 °F 29.87 in East 1.8 mph 3.5 mph 77 % 0.00 in 0.0 W/m2 CLR
02:03 48.2 °F 41.3 °F 29.87 in East 0.2 mph 3.5 mph 77 % 0.00 in 0.0 W/m2 CLR
02:08 48.2 °F 41.7 °F 29.86 in ESE 2.4 mph 3.5 mph 78 % 0.00 in 0.0 W/m2 CLR
02:13 48.2 °F 41.7 °F 29.86 in ENE 2.0 mph 5.0 mph 78 % 0.00 in 0.0 W/m2 CLR
02:18 48.2 °F 41.7 °F 29.85 in East 3.8 mph 4.6 mph 78 % 0.00 in 0.0 W/m2 CLR
02:23 48.1 °F 41.6 °F 29.85 in East 6.5 mph 11.5 mph 78 % 0.00 in 0.0 W/m2 CLR
02:28 47.9 °F 41.4 °F 29.85 in East 4.6 mph 8.1 mph 78 % 0.00 in 0.0 W/m2 CLR
02:33 47.9 °F 41.4 °F 29.85 in East 2.2 mph 5.8 mph 78 % 0.00 in 0.0 W/m2 CLR
02:38 47.9 °F 41.4 °F 29.84 in East 3.1 mph 4.0 mph 78 % 0.00 in 0.0 W/m2 CLR
02:43 47.8 °F 41.6 °F 29.84 in SE 2.1 mph 3.0 mph 79 % 0.00 in 0.0 W/m2 CLR
02:48 47.8 °F 41.6 °F 29.84 in East 1.1 mph 4.6 mph 79 % 0.00 in 0.0 W/m2 CLR
02:53 47.7 °F 41.5 °F 29.84 in East 2.6 mph 10.4 mph 79 % 0.00 in 0.0 W/m2 CLR
02:58 47.7 °F 41.5 °F 29.84 in East 5.0 mph 6.9 mph 79 % 0.00 in 0.0 W/m2 CLR
03:03 47.6 °F 41.4 °F 29.84 in East 4.2 mph 11.5 mph 79 % 0.00 in 0.0 W/m2 CLR
03:08 47.6 °F 41.7 °F 29.84 in East 4.9 mph 8.1 mph 80 % 0.00 in 0.0 W/m2 CLR
03:13 47.5 °F 41.6 °F 29.84 in ENE 6.3 mph 11.5 mph 80 % 0.00 in 0.0 W/m2 CLR
03:18 47.4 °F 41.5 °F 29.84 in NNE 1.4 mph 3.5 mph 80 % 0.00 in 0.0 W/m2 CLR
03:24 47.4 °F 41.5 °F 29.84 in ENE 3.9 mph 12.7 mph 80 % 0.00 in 0.0 W/m2 CLR
03:29 47.4 °F 41.5 °F 29.84 in East 5.9 mph 11.5 mph 80 % 0.00 in 0.0 W/m2 CLR
03:34 47.3 °F 41.4 °F 29.83 in ESE 4.9 mph 8.1 mph 80 % 0.00 in 0.0 W/m2 CLR
03:39 47.2 °F 41.7 °F 29.83 in East 2.2 mph 5.8 mph 81 % 0.00 in 0.0 W/m2 CLR
03:44 47.2 °F 41.7 °F 29.83 in SE 6.4 mph 9.2 mph 81 % 0.00 in 0.0 W/m2 CLR
03:49 47.1 °F 41.6 °F 29.83 in ESE 7.0 mph 9.2 mph 81 % 0.00 in 0.0 W/m2 CLR
03:54 47.0 °F 41.5 °F 29.83 in ESE 6.4 mph 10.4 mph 81 % 0.00 in 0.0 W/m2 CLR
03:59 46.9 °F 41.4 °F 29.83 in East 1.6 mph 3.5 mph 81 % 0.00 in 0.0 W/m2 CLR
04:04 46.9 °F 41.7 °F 29.83 in ESE 4.9 mph 10.4 mph 82 % 0.00 in 0.0 W/m2 CLR
04:09 46.7 °F 41.5 °F 29.82 in East 5.4 mph 11.5 mph 82 % 0.00 in 0.0 W/m2 CLR
04:14 46.5 °F 41.6 °F 29.82 in East 3.2 mph 4.0 mph 83 % 0.00 in 0.0 W/m2 CLR
04:19 46.1 °F 41.5 °F 29.82 in East 4.0 mph 8.1 mph 84 % 0.00 in 0.0 W/m2 CLR
04:24 45.8 °F 41.5 °F 29.81 in East 4.8 mph 8.1 mph 85 % 0.00 in 0.0 W/m2 CLR
04:29 45.7 °F 41.4 °F 29.80 in East 3.3 mph 4.6 mph 85 % 0.00 in 0.0 W/m2 CLR
04:34 45.6 °F 41.7 °F 29.80 in NE 5.7 mph 9.2 mph 86 % 0.00 in 0.0 W/m2 CLR
04:39 45.4 °F 41.5 °F 29.80 in East 5.6 mph 11.5 mph 86 % 0.00 in 0.0 W/m2 CLR
04:44 45.4 °F 41.5 °F 29.79 in East 3.6 mph 9.2 mph 86 % 0.00 in 0.0 W/m2 CLR
04:49 45.3 °F 41.7 °F 29.79 in ESE 4.8 mph 10.4 mph 87 % 0.00 in 0.0 W/m2 CLR
04:54 45.3 °F 41.7 °F 29.78 in ENE 3.7 mph 6.9 mph 87 % 0.00 in 0.0 W/m2 CLR
04:59 45.3 °F 41.7 °F 29.78 in East 1.8 mph 6.9 mph 87 % 0.00 in 0.0 W/m2 CLR
05:04 45.2 °F 41.6 °F 29.77 in East 8.0 mph 11.5 mph 87 % 0.00 in 0.0 W/m2 CLR
05:09 45.1 °F 41.8 °F 29.77 in SE 4.5 mph 6.9 mph 88 % 0.00 in 0.0 W/m2 CLR
05:14 45.0 °F 41.7 °F 29.77 in East 1.5 mph 2.0 mph 88 % 0.01 in 0.0 W/m2 RA
05:19 44.9 °F 41.6 °F 29.76 in ESE 3.1 mph 9.2 mph 88 % 0.01 in 0.0 W/m2 RA
05:24 44.8 °F 41.5 °F 29.76 in East 4.4 mph 8.1 mph 88 % 0.01 in 0.0 W/m2
05:29 44.8 °F 41.8 °F 29.76 in East 4.7 mph 9.2 mph 89 % 0.01 in 0.0 W/m2 CLR
05:34 44.7 °F 41.7 °F 29.75 in East 3.1 mph 4.6 mph 89 % 0.02 in 0.0 W/m2 RA
05:39 44.7 °F 41.7 °F 29.75 in East 1.6 mph 3.5 mph 89 % 0.02 in 0.0 W/m2 RA
05:44 44.6 °F 41.6 °F 29.75 in ENE 3.2 mph 6.9 mph 89 % 0.02 in 0.0 W/m2
05:49 44.5 °F 41.7 °F 29.76 in NE 3.2 mph 6.0 mph 90 % 0.02 in 0.0 W/m2
05:54 44.5 °F 41.7 °F 29.75 in ESE 4.4 mph 6.9 mph 90 % 0.03 in 0.0 W/m2 RA
05:59 44.5 °F 41.7 °F 29.75 in ESE 4.2 mph 4.6 mph 90 % 0.04 in 0.0 W/m2 RA
06:04 44.5 °F 41.7 °F 29.75 in East 3.4 mph 6.9 mph 90 % 0.04 in 0.0 W/m2 RA
06:09 44.5 °F 41.7 °F 29.75 in East 3.6 mph 5.8 mph 90 % 0.04 in 0.0 W/m2
06:14 44.5 °F 41.7 °F 29.74 in East 3.1 mph 5.8 mph 90 % 0.03 in 0.0 W/m2
06:19 44.4 °F 41.7 °F 29.74 in East 2.5 mph 6.0 mph 90 % 0.03 in 0.0 W/m2
06:24 44.4 °F 41.9 °F 29.73 in NE 1.8 mph   91 % 0.03 in 0.0 W/m2
06:29 44.5 °F 42.0 °F 29.73 in NE 2.0 mph 2.3 mph 91 % 0.03 in 0.0 W/m2
06:34 44.4 °F 41.9 °F 29.73 in ENE 1.1 mph 6.9 mph 91 % 0.02 in 0.0 W/m2
06:39 44.3 °F 41.8 °F 29.72 in ENE 3.0 mph 4.6 mph 91 % 0.02 in 0.0 W/m2
06:44 44.2 °F 41.7 °F 29.73 in ENE 2.3 mph 3.5 mph 91 % 0.03 in 0.0 W/m2 RA
06:49 44.1 °F 41.6 °F 29.73 in East 2.3 mph 5.8 mph 91 % 0.03 in 0.0 W/m2 RA
06:54 44.0 °F 41.5 °F 29.73 in East 1.3 mph 3.5 mph 91 % 0.02 in 0.0 W/m2
06:56 44.0 °F 41.5 °F 29.73 in East 1.8 mph 3.5 mph 91 % 0.02 in 0.0 W/m2
07:01 44.1 °F 41.6 °F 29.72 in ENE 3.5 mph 9.2 mph 91 % 0.01 in 0.0 W/m2
07:06 44.0 °F 41.5 °F 29.72 in East 3.3 mph 4.6 mph 91 % 0.01 in 0.0 W/m2
07:11 44.0 °F 41.5 °F 29.73 in East 2.3 mph 4.6 mph 91 % 0.01 in 0.0 W/m2
07:16 43.8 °F 41.3 °F 29.72 in ENE 3.2 mph 9.0 mph 91 % 0.02 in 0.0 W/m2 RA
07:21 43.7 °F 41.5 °F 29.73 in East 3.6 mph 6.9 mph 92 % 0.02 in 11.0 W/m2 RA
07:26 43.6 °F 41.4 °F 29.72 in Calm   2.0 mph 92 % 0.02 in 11.0 W/m2
07:31 43.6 °F 41.4 °F 29.72 in East 0.8 mph 2.3 mph 92 % 0.02 in 9.0 W/m2 OVC
07:36 43.4 °F 41.2 °F 29.71 in ENE 3.3 mph 9.2 mph 92 % 0.03 in 9.0 W/m2 RA
07:41 43.2 °F 41.0 °F 29.70 in ENE 3.7 mph 8.1 mph 92 % 0.02 in 11.0 W/m2 RA
07:46 43.1 °F 40.9 °F 29.68 in NNE 2.3 mph 6.0 mph 92 % 0.02 in 16.0 W/m2
07:51 43.1 °F 40.9 °F 29.67 in NNE 2.3 mph 5.8 mph 92 % 0.02 in 19.0 W/m2
07:56 43.1 °F 40.9 °F 29.67 in ENE 3.2 mph 5.8 mph 92 % 0.02 in 18.0 W/m2 OVC
08:01 43.0 °F 40.8 °F 29.67 in East 3.8 mph 8.1 mph 92 % 0.02 in 16.0 W/m2 OVC
08:06 43.0 °F 40.8 °F 29.66 in East 2.7 mph 8.1 mph 92 % 0.02 in 23.0 W/m2 OVC
08:11 43.1 °F 40.9 °F 29.65 in NE 3.8 mph 4.6 mph 92 % 0.02 in 26.0 W/m2 OVC
08:16 42.9 °F 40.7 °F 29.67 in ENE 3.7 mph 6.9 mph 92 % 0.01 in 23.0 W/m2 OVC
08:21 42.9 °F 40.7 °F 29.66 in East 3.4 mph 3.5 mph 92 % 0.01 in 33.0 W/m2 OVC
08:26 42.8 °F 40.6 °F 29.64 in ENE 5.0 mph 8.1 mph 92 % 0.01 in 37.0 W/m2 OVC
08:31 42.6 °F 40.4 °F 29.64 in ENE 2.1 mph 4.6 mph 92 % 0.01 in 33.0 W/m2 OVC
08:36 42.6 °F 40.4 °F 29.64 in ESE 4.1 mph 8.1 mph 92 % 0.00 in 35.0 W/m2 OVC
08:41 42.5 °F 40.6 °F 29.64 in ENE 3.6 mph 8.1 mph 93 % 0.00 in 33.0 W/m2 OVC
08:46 42.5 °F 40.6 °F 29.64 in ENE 2.7 mph 3.5 mph 93 % 0.00 in 32.0 W/m2 OVC
08:51 42.3 °F 40.1 °F 29.64 in ENE 5.9 mph 9.2 mph 92 % 0.00 in 37.0 W/m2 OVC
08:56 42.3 °F 40.1 °F 29.64 in East 3.1 mph 6.9 mph 92 % 0.00 in 42.0 W/m2 OVC
09:01 42.2 °F 40.0 °F 29.64 in ENE 2.5 mph 8.1 mph 92 % 0.00 in 49.0 W/m2 OVC
09:06 42.4 °F 40.5 °F 29.64 in East 5.5 mph 8.1 mph 93 % 0.00 in 53.0 W/m2 OVC
09:11 42.3 °F 40.4 °F 29.64 in East 3.8 mph 6.9 mph 93 % 0.01 in 58.0 W/m2 RA
09:16 42.3 °F 40.4 °F 29.64 in East 3.7 mph 10.0 mph 93 % 0.01 in 69.0 W/m2 RA
09:21 42.2 °F 40.3 °F 29.64 in East 3.8 mph 9.2 mph 93 % 0.01 in 54.0 W/m2 OVC
09:26 42.2 °F 40.3 °F 29.64 in ESE 5.0 mph 8.1 mph 93 % 0.01 in 69.0 W/m2 OVC
09:31 42.3 °F 40.4 °F 29.63 in ESE 2.6 mph 7.0 mph 93 % 0.01 in 67.0 W/m2 OVC
09:36 42.2 °F 40.3 °F 29.63 in East 4.4 mph 11.5 mph 93 % 0.01 in 54.0 W/m2 OVC
09:41 42.2 °F 40.3 °F 29.63 in ENE 1.1 mph 5.8 mph 93 % 0.01 in 54.0 W/m2 OVC
09:46 42.3 °F 40.4 °F 29.63 in ENE 3.1 mph 4.0 mph 93 % 0.01 in 54.0 W/m2 OVC
09:51 42.2 °F 40.3 °F 29.63 in East 1.5 mph 8.1 mph 93 % 0.01 in 46.0 W/m2 OVC
09:56 42.3 °F 40.4 °F 29.63 in ENE 0.3 mph 3.0 mph 93 % 0.01 in 33.0 W/m2 OVC
10:01 42.2 °F 40.3 °F 29.63 in Calm   3.5 mph 93 % 0.01 in 25.0 W/m2 OVC
10:06 42.2 °F 40.3 °F 29.64 in Calm     93 % 0.01 in 12.0 W/m2 OVC
10:11 42.1 °F 40.2 °F 29.64 in Calm   2.3 mph 93 % 0.01 in 12.0 W/m2 RA
10:16 42.0 °F 40.1 °F 29.64 in Calm   3.5 mph 93 % 0.05 in 16.0 W/m2 RA
10:21 42.2 °F 40.3 °F 29.64 in ENE 0.2 mph 1.2 mph 93 % 0.13 in 11.0 W/m2 RA
10:26 42.0 °F 40.1 °F 29.63 in ENE 0.1 mph 4.6 mph 93 % 0.20 in 11.0 W/m2 RA
10:31 41.9 °F 40.0 °F 29.62 in ENE 1.9 mph 4.6 mph 93 % 0.30 in 14.0 W/m2 RA
10:36 41.8 °F 39.9 °F 29.62 in ESE 2.9 mph 6.0 mph 93 % 0.39 in 25.0 W/m2 RA
10:41 41.8 °F 39.9 °F 29.62 in East 2.6 mph 4.6 mph 93 % 0.40 in 19.0 W/m2 RA
10:46 41.8 °F 39.9 °F 29.62 in Calm   2.3 mph 93 % 0.41 in 25.0 W/m2 RA
10:51 41.9 °F 40.0 °F 29.63 in Calm   3.5 mph 93 % 0.42 in 26.0 W/m2 RA
10:56 41.8 °F 39.9 °F 29.62 in NE 1.4 mph 3.5 mph 93 % 0.42 in 21.0 W/m2 RA
11:01 41.8 °F 39.9 °F 29.61 in ENE 3.0 mph 9.2 mph 93 % 0.43 in 23.0 W/m2 RA
11:06 41.8 °F 40.2 °F 29.61 in NE 0.5 mph 3.5 mph 94 % 0.45 in 16.0 W/m2 RA
11:11 41.8 °F 39.9 °F 29.61 in East 0.6 mph 3.5 mph 93 % 0.46 in 14.0 W/m2 RA
11:16 41.8 °F 40.2 °F 29.60 in ENE 0.7 mph 4.6 mph 94 % 0.46 in 21.0 W/m2 RA
11:21 41.7 °F 39.8 °F 29.59 in ENE 3.3 mph 6.9 mph 93 % 0.44 in 26.0 W/m2 RA
11:26 41.6 °F 40.0 °F 29.58 in NE 4.9 mph 8.0 mph 94 % 0.39 in 32.0 W/m2 RA
11:32 41.6 °F 40.0 °F 29.57 in NE 4.8 mph 5.8 mph 94 % 0.30 in 30.0 W/m2 RA
11:37 41.7 °F 40.1 °F 29.56 in NE 1.8 mph 4.0 mph 94 % 0.23 in 44.0 W/m2 RA
11:42 41.7 °F 40.1 °F 29.55 in ENE 4.5 mph 8.1 mph 94 % 0.24 in 62.0 W/m2 RA
11:47 41.8 °F 40.2 °F 29.55 in ENE 4.8 mph 11.5 mph 94 % 0.23 in 37.0 W/m2 RA
11:52 41.9 °F 40.3 °F 29.55 in NE 4.1 mph 6.9 mph 94 % 0.24 in 26.0 W/m2 RA
11:57 41.9 °F 40.3 °F 29.54 in NE 3.7 mph 6.9 mph 94 % 0.25 in 21.0 W/m2 RA
12:02 42.0 °F 40.4 °F 29.53 in NE 2.6 mph 4.6 mph 94 % 0.26 in 30.0 W/m2 RA
12:07 42.0 °F 40.4 °F 29.51 in ENE 4.9 mph 9.2 mph 94 % 0.23 in 53.0 W/m2 RA
12:12 42.0 °F 40.4 °F 29.52 in NNE 5.4 mph 10.4 mph 94 % 0.23 in 26.0 W/m2 RA
12:17 41.9 °F 40.3 °F 29.52 in ENE 1.4 mph 3.5 mph 94 % 0.19 in 35.0 W/m2 RA
12:22 41.9 °F 40.3 °F 29.51 in NE 5.1 mph 11.0 mph 94 % 0.18 in 63.0 W/m2 RA
12:27 41.9 °F 40.3 °F 29.51 in ENE 6.3 mph 11.5 mph 94 % 0.18 in 49.0 W/m2 RA
12:32 42.0 °F 40.4 °F 29.50 in ENE 5.8 mph 10.4 mph 94 % 0.18 in 26.0 W/m2 RA
12:37 42.0 °F 40.4 °F 29.50 in NE 5.5 mph 8.1 mph 94 % 0.18 in 23.0 W/m2 RA
12:42 42.0 °F 40.4 °F 29.48 in NE 7.2 mph 10.4 mph 94 % 0.19 in 74.0 W/m2 RA
12:47 42.1 °F 40.5 °F 29.45 in NE 10.5 mph 13.0 mph 94 % 0.21 in 128.0 W/m2 RA
12:52 42.2 °F 40.6 °F 29.45 in NNE 5.6 mph 9.2 mph 94 % 0.19 in 102.0 W/m2 RA
12:57 42.3 °F 40.7 °F 29.45 in NE 6.4 mph 11.5 mph 94 % 0.18 in 54.0 W/m2 RA
13:02 42.3 °F 40.7 °F 29.44 in NE 8.5 mph 13.8 mph 94 % 0.17 in 56.0 W/m2 RA
13:07 42.2 °F 40.6 °F 29.44 in NE 3.4 mph 6.0 mph 94 % 0.17 in 67.0 W/m2 OVC
13:12 42.3 °F 40.7 °F 29.42 in NNE 5.6 mph 9.2 mph 94 % 0.17 in 88.0 W/m2 RA
13:17 42.2 °F 40.6 °F 29.42 in NE 6.3 mph 10.4 mph 94 % 0.16 in 47.0 W/m2 RA
13:22 42.2 °F 40.6 °F 29.41 in NE 5.5 mph 10.0 mph 94 % 0.12 in 58.0 W/m2 OVC
13:27 42.1 °F 40.5 °F 29.41 in NE 5.0 mph 13.8 mph 94 % 0.09 in 40.0 W/m2 OVC
13:32 42.2 °F 40.6 °F 29.41 in NNE 3.8 mph 6.9 mph 94 % 0.08 in 51.0 W/m2 OVC
13:37 42.2 °F 40.6 °F 29.40 in NE 4.8 mph 10.4 mph 94 % 0.06 in 25.0 W/m2 OVC
13:42 42.2 °F 40.6 °F 29.39 in NE 6.5 mph 10.4 mph 94 % 0.04 in 42.0 W/m2 OVC
13:47 42.1 °F 40.5 °F 29.38 in ENE 8.6 mph 13.8 mph 94 % 0.02 in 37.0 W/m2 OVC
13:52 42.2 °F 40.6 °F 29.37 in ENE 6.0 mph 10.4 mph 94 % 0.02 in 49.0 W/m2 OVC
13:57 42.3 °F 40.7 °F 29.36 in NNE 11.7 mph 13.8 mph 94 % 0.01 in 51.0 W/m2 OVC
14:02 42.3 °F 40.7 °F 29.36 in East 6.0 mph 9.2 mph 94 % 0.01 in 46.0 W/m2 OVC
14:07 42.3 °F 40.7 °F 29.34 in ENE 5.5 mph 10.4 mph 94 % 0.01 in 35.0 W/m2 OVC
14:12 42.3 °F 40.7 °F 29.33 in NE 9.7 mph 13.8 mph 94 % 0.01 in 40.0 W/m2 RA
14:17 42.3 °F 40.7 °F 29.35 in NE 4.2 mph 10.4 mph 94 % 0.02 in 26.0 W/m2 RA
14:22 42.4 °F 40.8 °F 29.34 in East 1.3 mph 6.9 mph 94 % 0.04 in 23.0 W/m2 RA
14:27 42.6 °F 41.3 °F 29.32 in NE 3.5 mph 6.0 mph 95 % 0.05 in 30.0 W/m2 RA
14:32 42.8 °F 41.5 °F 29.31 in ENE 2.8 mph 9.2 mph 95 % 0.06 in 30.0 W/m2 RA
14:37 43.1 °F 41.8 °F 29.30 in ENE 4.5 mph 9.2 mph 95 % 0.08 in 28.0 W/m2 RA
14:42 43.2 °F 41.9 °F 29.28 in East 6.3 mph 11.5 mph 95 % 0.10 in 25.0 W/m2 RA
14:47 43.4 °F 42.1 °F 29.28 in ENE 6.3 mph 9.2 mph 95 % 0.14 in 16.0 W/m2 RA
14:52 43.6 °F 42.3 °F 29.27 in ENE 4.8 mph 11.5 mph 95 % 0.15 in 7.0 W/m2 RA
14:57 43.8 °F 42.5 °F 29.26 in NE 3.4 mph 4.6 mph 95 % 0.18 in 9.0 W/m2 RA
15:02 43.9 °F 42.6 °F 29.24 in ENE 8.5 mph 13.8 mph 95 % 0.19 in 9.0 W/m2 RA
15:07 43.8 °F 42.2 °F 29.25 in NE 3.9 mph 12.7 mph 94 % 0.21 in 7.0 W/m2 RA
15:12 43.8 °F 42.2 °F 29.24 in NE 1.5 mph 5.8 mph 94 % 0.21 in 12.0 W/m2 RA
15:15 44.0 °F 42.7 °F 29.23 in NE 5.7 mph 11.5 mph 95 % 0.21 in 14.0 W/m2 RA
15:20 44.0 °F 42.7 °F 29.23 in NE 2.7 mph 5.8 mph 95 % 0.20 in 19.0 W/m2 RA
15:25 43.9 °F 42.6 °F 29.22 in ENE 4.7 mph 10.4 mph 95 % 0.20 in 26.0 W/m2 RA
15:30 43.9 °F 42.6 °F 29.21 in NE 7.4 mph 9.2 mph 95 % 0.20 in 18.0 W/m2 RA
15:35 43.8 °F 42.2 °F 29.22 in NE 3.9 mph 9.2 mph 94 % 0.20 in 16.0 W/m2 RA
15:40 43.8 °F 42.5 °F 29.21 in NE 4.2 mph 10.4 mph 95 % 0.22 in 14.0 W/m2 RA
15:45 43.8 °F 42.5 °F 29.21 in East 1.9 mph 3.5 mph 95 % 0.22 in 16.0 W/m2 RA
15:50 43.8 °F 42.5 °F 29.21 in NE 2.3 mph 9.2 mph 95 % 0.24 in 21.0 W/m2 RA
15:55 44.0 °F 42.7 °F 29.23 in Calm     95 % 0.27 in 12.0 W/m2 RA
16:00 44.0 °F 42.7 °F 29.23 in Calm     95 % 0.31 in 9.0 W/m2 RA
16:05 44.2 °F 42.9 °F 29.22 in NE 3.8 mph 5.8 mph 95 % 0.30 in 19.0 W/m2 RA
16:06 44.2 °F 42.9 °F 29.21 in ENE 4.8 mph 5.8 mph 95 % 0.30 in 23.0 W/m2 RA
16:11 44.3 °F 43.0 °F 29.20 in ENE 3.0 mph 4.6 mph 95 % 0.30 in 26.0 W/m2 RA
16:16 44.3 °F 43.0 °F 29.20 in ENE 3.6 mph 6.9 mph 95 % 0.30 in 26.0 W/m2 RA
16:21 44.3 °F 43.0 °F 29.20 in NE 5.4 mph 8.1 mph 95 % 0.31 in 25.0 W/m2 RA
16:26 44.3 °F 43.0 °F 29.19 in NE 0.8 mph 3.0 mph 95 % 0.32 in 33.0 W/m2 RA
16:31 44.5 °F 43.2 °F 29.19 in NNE 1.1 mph 3.5 mph 95 % 0.36 in 47.0 W/m2 RA
16:36 44.8 °F 43.5 °F 29.20 in NW 0.7 mph 3.5 mph 95 % 0.36 in 49.0 W/m2 RA
16:41 44.9 °F 43.6 °F 29.20 in Calm   2.3 mph 95 % 0.31 in 26.0 W/m2 RA
16:46 45.2 °F 43.9 °F 29.21 in West 2.0 mph 4.0 mph 95 % 0.29 in 12.0 W/m2 RA
16:51 45.2 °F 43.9 °F 29.18 in NNW 3.8 mph 6.9 mph 95 % 0.25 in 21.0 W/m2 OVC
16:56 45.5 °F 44.2 °F 29.17 in North 0.8 mph 3.5 mph 95 % 0.17 in 44.0 W/m2 OVC
17:01 45.8 °F 44.4 °F 29.16 in North 0.8 mph 3.5 mph 95 % 0.14 in 19.0 W/m2 OVC
17:06 46.0 °F 44.6 °F 29.15 in NNW 6.7 mph 11.5 mph 95 % 0.13 in 33.0 W/m2 OVC
17:11 46.0 °F 44.6 °F 29.16 in NW 1.2 mph 3.5 mph 95 % 0.12 in 39.0 W/m2 OVC
17:16 46.0 °F 44.6 °F 29.17 in Calm     95 % 0.10 in 51.0 W/m2 OVC
17:21 46.2 °F 44.8 °F 29.18 in WSW 0.2 mph 2.3 mph 95 % 0.08 in 23.0 W/m2 OVC
17:26 45.9 °F 44.5 °F 29.18 in Calm     95 % 0.06 in 14.0 W/m2 OVC
17:31 46.1 °F 44.7 °F 29.19 in SW 8.9 mph 16.1 mph 95 % 0.02 in 49.0 W/m2 OVC
17:36 45.6 °F 44.3 °F 29.20 in West 7.1 mph 11.5 mph 95 % 0.01 in 53.0 W/m2 OVC
17:41 44.9 °F 43.3 °F 29.19 in WSW 0.1 mph 6.9 mph 94 % 0.00 in 49.0 W/m2 OVC
17:46 44.7 °F 43.4 °F 29.19 in WSW 3.2 mph 3.5 mph 95 % 0.00 in 90.0 W/m2 BKN
17:51 44.9 °F 43.6 °F 29.19 in West 3.5 mph 8.1 mph 95 % 0.00 in 65.0 W/m2 OVC
17:56 45.2 °F 43.9 °F 29.20 in WSW 0.5 mph 4.6 mph 95 % 0.01 in 42.0 W/m2 RA
18:01 45.0 °F 43.7 °F 29.20 in SW 3.5 mph 8.0 mph 95 % 0.01 in 28.0 W/m2 RA
18:06 44.8 °F 43.2 °F 29.20 in SW 5.0 mph 8.1 mph 94 % 0.02 in 18.0 W/m2 RA
18:11 44.8 °F 43.2 °F 29.20 in SW 6.1 mph 8.1 mph 94 % 0.03 in 23.0 W/m2 RA
18:16 44.8 °F 43.2 °F 29.21 in SSW 3.6 mph 7.0 mph 94 % 0.03 in 26.0 W/m2 RA
18:21 45.0 °F 43.7 °F 29.21 in WSW 4.1 mph 10.4 mph 95 % 0.03 in 44.0 W/m2
18:26 45.2 °F 43.9 °F 29.21 in WSW 3.9 mph 9.2 mph 95 % 0.04 in 28.0 W/m2 RA
18:31 45.3 °F 44.0 °F 29.21 in SW 4.0 mph 10.0 mph 95 % 0.05 in 14.0 W/m2 RA
18:36 45.3 °F 44.0 °F 29.22 in SSW 2.6 mph 6.0 mph 95 % 0.06 in 9.0 W/m2 RA
18:41 45.6 °F 44.3 °F 29.23 in SW 6.5 mph 11.5 mph 95 % 0.07 in 9.0 W/m2 RA
18:46 45.8 °F 44.4 °F 29.23 in SW 4.3 mph 9.2 mph 95 % 0.08 in 9.0 W/m2 RA
18:51 45.9 °F 44.5 °F 29.23 in WSW 3.2 mph 6.9 mph 95 % 0.09 in 14.0 W/m2 RA
18:56 46.0 °F 44.4 °F 29.24 in SSW 5.0 mph 11.5 mph 94 % 0.08 in 16.0 W/m2 RA
19:01 46.1 °F 44.5 °F 29.24 in SW 3.6 mph 10.4 mph 94 % 0.08 in 18.0 W/m2 BKN
19:06 46.1 °F 44.5 °F 29.24 in WSW 5.9 mph 11.5 mph 94 % 0.07 in 16.0 W/m2 BKN
19:11 46.3 °F 44.7 °F 29.24 in SW 10.9 mph 15.0 mph 94 % 0.07 in 7.0 W/m2 RA
19:16 46.3 °F 44.7 °F 29.24 in SSW 2.9 mph 12.0 mph 94 % 0.07 in 5.0 W/m2 RA
19:21 46.4 °F 44.8 °F 29.24 in SW 7.1 mph 11.5 mph 94 % 0.07 in 0.0 W/m2
19:26 46.4 °F 44.8 °F 29.25 in SSW 7.9 mph 10.0 mph 94 % 0.06 in 0.0 W/m2 OVC
19:31 46.4 °F 44.8 °F 29.24 in SW 6.0 mph 11.5 mph 94 % 0.05 in 0.0 W/m2
19:36 46.4 °F 44.8 °F 29.24 in WSW 4.5 mph 9.2 mph 94 % 0.04 in 0.0 W/m2
19:41 46.4 °F 44.8 °F 29.24 in WSW 0.6 mph 3.5 mph 94 % 0.03 in 0.0 W/m2
19:46 46.5 °F 44.9 °F 29.24 in WSW 2.2 mph 7.0 mph 94 % 0.02 in 0.0 W/m2
19:51 46.5 °F 44.9 °F 29.24 in WSW 1.2 mph 3.5 mph 94 % 0.01 in 0.0 W/m2
19:56 46.5 °F 44.9 °F 29.24 in West 2.7 mph 9.2 mph 94 % 0.01 in 0.0 W/m2
20:01 46.5 °F 44.9 °F 29.24 in WSW 3.6 mph 10.4 mph 94 % 0.01 in 0.0 W/m2
20:06 46.6 °F 45.0 °F 29.25 in SSW 5.1 mph 9.2 mph 94 % 0.01 in 0.0 W/m2
20:11 46.6 °F 45.0 °F 29.25 in WSW 4.2 mph 11.5 mph 94 % 0.00 in 0.0 W/m2 CLR
20:16 46.7 °F 45.1 °F 29.26 in SW 0.5 mph 3.5 mph 94 % 0.00 in 0.0 W/m2 CLR
20:21 46.8 °F 45.2 °F 29.26 in WSW 4.3 mph 11.5 mph 94 % 0.00 in 0.0 W/m2 CLR
20:26 46.9 °F 45.3 °F 29.26 in WSW 5.8 mph 9.2 mph 94 % 0.00 in 0.0 W/m2 CLR
20:31 47.0 °F 45.1 °F 29.26 in WSW 1.7 mph 8.1 mph 93 % 0.00 in 0.0 W/m2 CLR
20:36 47.0 °F 45.1 °F 29.26 in SW 2.3 mph 5.8 mph 93 % 0.00 in 0.0 W/m2 CLR
20:41 47.1 °F 45.2 °F 29.26 in WSW 2.1 mph 8.1 mph 93 % 0.00 in 0.0 W/m2 CLR
20:46 47.1 °F 45.2 °F 29.27 in Calm   3.5 mph 93 % 0.00 in 0.0 W/m2 CLR
20:51 47.1 °F 45.2 °F 29.27 in Calm   2.3 mph 93 % 0.00 in 0.0 W/m2 CLR
20:56 47.2 °F 45.3 °F 29.27 in WSW 4.1 mph 5.8 mph 93 % 0.00 in 0.0 W/m2 CLR
21:01 47.3 °F 45.4 °F 29.27 in WSW 1.5 mph 8.1 mph 93 % 0.00 in 0.0 W/m2 CLR
21:06 47.5 °F 45.6 °F 29.27 in SW 2.1 mph 4.6 mph 93 % 0.00 in 0.0 W/m2 CLR
21:12 47.7 °F 45.8 °F 29.27 in South 3.3 mph 6.0 mph 93 % 0.00 in 0.0 W/m2 CLR
21:17 47.9 °F 46.0 °F 29.27 in West 0.1 mph 4.6 mph 93 % 0.00 in 0.0 W/m2 CLR
21:22 48.2 °F 46.3 °F 29.27 in West 4.5 mph 9.2 mph 93 % 0.00 in 0.0 W/m2 CLR
21:27 48.3 °F 46.4 °F 29.28 in SW 7.5 mph 9.2 mph 93 % 0.00 in 0.0 W/m2 CLR
21:32 48.4 °F 46.5 °F 29.28 in WSW 4.7 mph 11.0 mph 93 % 0.00 in 0.0 W/m2 CLR
21:37 48.5 °F 46.6 °F 29.28 in WSW 4.6 mph 12.7 mph 93 % 0.00 in 0.0 W/m2 CLR
21:42 48.5 °F 46.6 °F 29.28 in SW 4.6 mph 8.1 mph 93 % 0.00 in 0.0 W/m2 CLR
21:47 48.6 °F 46.7 °F 29.29 in WSW 5.7 mph 9.2 mph 93 % 0.00 in 0.0 W/m2 CLR
21:52 48.6 °F 46.7 °F 29.29 in WSW 7.0 mph 13.8 mph 93 % 0.00 in 0.0 W/m2 CLR
21:57 48.5 °F 46.3 °F 29.29 in SW 4.3 mph 8.1 mph 92 % 0.00 in 0.0 W/m2 CLR
22:02 48.5 °F 46.3 °F 29.29 in WSW 1.1 mph 4.6 mph 92 % 0.00 in 0.0 W/m2 CLR
22:07 48.4 °F 46.2 °F 29.28 in SW 4.1 mph 9.2 mph 92 % 0.00 in 0.0 W/m2 CLR
22:12 48.5 °F 46.3 °F 29.29 in SSW 6.5 mph 13.8 mph 92 % 0.00 in 0.0 W/m2 CLR
22:17 48.4 °F 46.2 °F 29.29 in WSW 2.4 mph 9.2 mph 92 % 0.00 in 0.0 W/m2 CLR
22:22 48.5 °F 46.3 °F 29.29 in WSW 1.3 mph 7.0 mph 92 % 0.00 in 0.0 W/m2 CLR
22:27 48.4 °F 46.2 °F 29.29 in SW 2.4 mph 4.6 mph 92 % 0.00 in 0.0 W/m2 CLR
22:32 48.4 °F 46.2 °F 29.29 in WSW 0.3 mph 2.3 mph 92 % 0.00 in 0.0 W/m2 CLR
22:37 48.4 °F 46.2 °F 29.30 in WSW 4.2 mph 10.4 mph 92 % 0.00 in 0.0 W/m2 CLR
22:42 48.5 °F 46.3 °F 29.30 in SW 3.9 mph 10.4 mph 92 % 0.00 in 0.0 W/m2 CLR
22:47 48.7 °F 46.5 °F 29.30 in SW 6.6 mph 10.4 mph 92 % 0.00 in 0.0 W/m2 CLR
22:52 48.8 °F 46.6 °F 29.30 in WSW 6.4 mph 13.0 mph 92 % 0.00 in 0.0 W/m2 CLR
22:57 48.8 °F 46.3 °F 29.30 in SW 7.8 mph 12.7 mph 91 % 0.00 in 0.0 W/m2 CLR
23:02 48.8 °F 46.3 °F 29.30 in SSW 12.6 mph 18.4 mph 91 % 0.00 in 0.0 W/m2 CLR
23:07 48.9 °F 46.1 °F 29.30 in SW 10.0 mph 15.0 mph 90 % 0.00 in 0.0 W/m2 CLR
23:12 49.0 °F 46.2 °F 29.31 in SW 3.6 mph 9.2 mph 90 % 0.00 in 0.0 W/m2 CLR
23:17 48.9 °F 45.5 °F 29.31 in WSW 12.9 mph 21.9 mph 88 % 0.00 in 0.0 W/m2 CLR
23:22 48.5 °F 44.2 °F 29.31 in SW 6.8 mph 11.5 mph 85 % 0.00 in 0.0 W/m2 CLR
23:27 48.4 °F 43.5 °F 29.31 in WSW 10.9 mph 19.6 mph 83 % 0.00 in 0.0 W/m2 CLR
23:32 48.3 °F 42.7 °F 29.31 in SW 12.7 mph 16.1 mph 81 % 0.00 in 0.0 W/m2 CLR
23:37 48.3 °F 42.1 °F 29.32 in WSW 9.4 mph 17.3 mph 79 % 0.00 in 0.0 W/m2 CLR
23:42 48.1 °F 41.6 °F 29.32 in WSW 12.7 mph 18.4 mph 78 % 0.00 in 0.0 W/m2 CLR
23:47 47.9 °F 41.0 °F 29.33 in WSW 11.5 mph 17.3 mph 77 % 0.00 in 0.0 W/m2 CLR
23:52 47.9 °F 40.7 °F 29.33 in SW 9.5 mph 11.5 mph 76 % 0.00 in 0.0 W/m2 CLR
23:57 47.7 °F 40.5 °F 29.33 in SW 4.7 mph 13.8 mph 76 % 0.00 in 0.0 W/m2 CLR
Air Products Campus Weather
Compliments of Weather Underground - 3.5 mb